createdAt,value
2019-03-03T00:00:30.256Z,28.07
2019-03-03T00:02:58.937Z,27.27
2019-03-03T00:05:27.606Z,25.53
2019-03-03T00:07:56.274Z,29.30
2019-03-03T00:10:24.955Z,29.33
2019-03-03T00:12:53.630Z,27.23
2019-03-03T00:15:22.309Z,27.50
2019-03-03T00:17:50.988Z,28.40
2019-03-03T00:20:19.659Z,30.93
2019-03-03T00:22:48.327Z,29.70
2019-03-03T00:25:17.390Z,29.63
2019-03-03T00:27:46.062Z,35.30
2019-03-03T00:30:17.243Z,31.53
2019-03-03T00:32:46.001Z,34.87
2019-03-03T00:35:15.172Z,29.33
2019-03-03T00:38:01.837Z,32.90
2019-03-03T00:40:47.356Z,34.00
2019-03-03T00:43:32.905Z,33.40
2019-03-03T00:46:05.778Z,33.10
2019-03-03T00:48:41.993Z,30.97
2019-03-03T00:51:12.223Z,31.93
2019-03-03T00:53:45.441Z,31.83
2019-03-03T00:56:21.786Z,32.70
2019-03-03T00:59:04.033Z,33.50
2019-03-03T01:01:34.273Z,31.30
2019-03-03T01:04:04.524Z,32.50
2019-03-03T01:06:37.761Z,35.57
2019-03-03T01:09:13.340Z,33.00
2019-03-03T01:11:55.306Z,31.83
2019-03-03T01:14:37.217Z,30.53
2019-03-03T01:17:16.598Z,31.20
2019-03-03T01:20:05.186Z,30.27
2019-03-03T01:22:51.871Z,27.47
2019-03-03T01:25:20.542Z,25.47
2019-03-03T01:27:49.217Z,25.70
2019-03-03T01:30:17.886Z,28.23
2019-03-03T01:32:46.561Z,29.87
2019-03-03T01:35:15.225Z,31.90
2019-03-03T01:37:43.913Z,28.67
2019-03-03T01:40:12.782Z,33.10
2019-03-03T01:42:41.486Z,28.07
2019-03-03T01:45:14.537Z,29.53
2019-03-03T01:47:43.207Z,27.70
2019-03-03T01:50:15.068Z,25.57
2019-03-03T01:52:43.752Z,27.33
2019-03-03T01:55:13.239Z,25.33
2019-03-03T01:57:41.894Z,26.63
2019-03-03T02:00:21.985Z,29.67
2019-03-03T02:02:51.266Z,26.53
2019-03-03T02:05:19.899Z,27.07
2019-03-03T02:07:48.611Z,25.00
2019-03-03T02:10:19.319Z,21.23
2019-03-03T02:12:48.015Z,24.03
2019-03-03T02:15:19.863Z,24.97
2019-03-03T02:17:48.539Z,23.90
2019-03-03T02:20:17.205Z,29.47
2019-03-03T02:22:45.878Z,24.73
2019-03-03T02:25:15.249Z,27.83
2019-03-03T02:27:44.030Z,27.10
2019-03-03T02:30:22.358Z,25.73
2019-03-03T02:32:51.031Z,21.97
2019-03-03T02:35:19.685Z,26.03
2019-03-03T02:37:48.360Z,26.30
2019-03-03T02:40:19.098Z,24.47
2019-03-03T02:42:47.863Z,22.50
2019-03-03T02:45:17.043Z,27.70
2019-03-03T02:47:45.734Z,25.03
2019-03-03T02:50:17.784Z,22.50
2019-03-03T02:52:46.856Z,26.20
2019-03-03T02:55:18.500Z,22.20
2019-03-03T02:57:47.112Z,28.80
2019-03-03T03:00:25.213Z,23.03
2019-03-03T03:02:55.445Z,26.83
2019-03-03T03:05:33.553Z,23.43
2019-03-03T03:08:09.961Z,22.13
2019-03-03T03:10:46.110Z,24.33
2019-03-03T03:13:32.907Z,27.10
2019-03-03T03:16:05.881Z,26.90
2019-03-03T03:18:36.128Z,26.93
2019-03-03T03:21:22.833Z,25.53
2019-03-03T03:23:59.097Z,24.03
2019-03-03T03:26:29.333Z,23.67
2019-03-03T03:29:05.329Z,27.23
2019-03-03T03:31:44.365Z,25.93
2019-03-03T03:34:14.599Z,25.73
2019-03-03T03:36:50.998Z,24.77
2019-03-03T03:39:33.415Z,24.90
2019-03-03T03:42:03.649Z,24.17
2019-03-03T03:44:36.978Z,24.93
2019-03-03T03:47:07.222Z,24.30
2019-03-03T03:49:46.550Z,28.00
2019-03-03T03:52:32.786Z,27.73
2019-03-03T03:55:03.026Z,25.37
2019-03-03T03:57:42.524Z,30.17
2019-03-03T04:00:18.588Z,26.07
2019-03-03T04:02:54.885Z,24.67
2019-03-03T04:05:25.106Z,24.57
2019-03-03T04:08:03.965Z,28.63
2019-03-03T04:10:37.035Z,26.93
2019-03-03T04:13:13.175Z,27.40
2019-03-03T04:15:49.532Z,27.17
2019-03-03T04:18:19.765Z,31.60
2019-03-03T04:20:52.941Z,28.73
2019-03-03T04:23:39.694Z,25.03
2019-03-03T04:26:09.918Z,26.30
2019-03-03T04:28:45.903Z,35.33
2019-03-03T04:31:16.134Z,26.63
2019-03-03T04:33:58.599Z,31.30
2019-03-03T04:39:27.087Z,28.60
2019-03-03T04:41:57.344Z,29.70
2019-03-03T04:44:30.638Z,28.07
2019-03-03T04:47:03.759Z,25.73
2019-03-03T04:49:46.207Z,34.83
2019-03-03T04:52:22.514Z,37.30
2019-03-03T04:55:01.900Z,41.30
2019-03-03T04:57:37.874Z,43.73
2019-03-03T05:00:26.294Z,49.10
2019-03-03T05:03:02.406Z,51.43
2019-03-03T05:05:32.644Z,51.07
2019-03-03T05:08:05.836Z,50.00
2019-03-03T05:10:52.469Z,52.70
2019-03-03T05:13:22.705Z,52.40
2019-03-03T05:15:52.971Z,47.10
2019-03-03T05:18:23.262Z,42.27
2019-03-03T05:20:51.912Z,45.37
2019-03-03T05:23:20.584Z,47.93
2019-03-03T05:25:49.255Z,46.13
2019-03-03T05:28:17.914Z,51.53
2019-03-03T05:30:46.574Z,46.53
2019-03-03T05:33:15.244Z,46.03
2019-03-03T05:35:43.906Z,43.20
2019-03-03T05:38:12.603Z,42.97
2019-03-03T05:40:41.253Z,46.00
2019-03-03T05:43:09.915Z,46.13
2019-03-03T05:45:38.569Z,40.50
2019-03-03T05:48:07.244Z,37.57
2019-03-03T05:50:35.918Z,38.63
2019-03-03T05:53:04.779Z,40.00
2019-03-03T05:55:33.416Z,46.87
2019-03-03T05:58:02.084Z,39.27
2019-03-03T06:00:30.990Z,39.70
2019-03-03T06:02:59.655Z,37.50
2019-03-03T06:05:28.336Z,38.23
2019-03-03T06:07:57.014Z,34.63
2019-03-03T06:10:25.685Z,42.33
2019-03-03T06:12:54.397Z,38.00
2019-03-03T06:15:23.066Z,36.00
2019-03-03T06:17:51.727Z,30.73
2019-03-03T06:20:20.410Z,34.43
2019-03-03T06:22:49.089Z,41.30
2019-03-03T06:25:17.744Z,35.50
2019-03-03T06:27:46.418Z,35.57
2019-03-03T06:30:15.788Z,37.50
2019-03-03T06:32:44.457Z,33.50
2019-03-03T06:35:13.420Z,36.30
2019-03-03T06:37:42.197Z,40.30
2019-03-03T06:40:11.586Z,35.57
2019-03-03T06:42:40.274Z,33.97
2019-03-03T06:45:13.792Z,36.90
2019-03-03T06:47:42.447Z,38.97
2019-03-03T06:50:12.605Z,37.47
2019-03-03T06:52:41.318Z,31.93
2019-03-03T06:55:10.260Z,35.53
2019-03-03T06:57:39.018Z,38.17
2019-03-03T07:00:10.666Z,40.93
2019-03-03T07:02:39.353Z,38.90
2019-03-03T07:05:09.614Z,37.10
2019-03-03T07:07:38.338Z,39.67
2019-03-03T07:10:09.697Z,41.70
2019-03-03T07:12:38.378Z,44.07
2019-03-03T07:15:10.060Z,39.90
2019-03-03T07:17:38.728Z,38.37
2019-03-03T07:20:09.698Z,41.80
2019-03-03T07:22:38.368Z,42.53
2019-03-03T07:25:17.265Z,40.13
2019-03-03T07:27:45.944Z,39.93
2019-03-03T07:30:15.713Z,41.93
2019-03-03T07:32:45.958Z,42.70
2019-03-03T07:35:14.637Z,45.27
2019-03-03T07:37:43.344Z,43.43
2019-03-03T07:40:12.002Z,40.17
2019-03-03T07:42:40.668Z,38.23
2019-03-03T07:45:12.112Z,36.03
2019-03-03T07:47:40.791Z,40.33
2019-03-03T07:50:09.468Z,33.87
2019-03-03T07:52:38.141Z,38.30
2019-03-03T07:55:09.021Z,36.30
2019-03-03T07:57:37.788Z,38.73
2019-03-03T08:00:11.483Z,33.50
2019-03-03T08:02:40.151Z,34.70
2019-03-03T08:05:09.924Z,35.47
2019-03-03T08:07:38.604Z,37.40
2019-03-03T08:10:17.438Z,33.47
2019-03-03T08:12:46.123Z,30.60
2019-03-03T08:15:19.009Z,34.20
2019-03-03T08:17:47.671Z,33.17
2019-03-03T08:20:16.432Z,35.03
2019-03-03T08:22:45.122Z,32.57
2019-03-03T08:25:14.116Z,36.47
2019-03-03T08:27:42.789Z,34.43
2019-03-03T08:30:13.618Z,32.03
2019-03-03T08:32:42.308Z,33.60
2019-03-03T08:35:13.821Z,34.40
2019-03-03T08:37:42.555Z,33.83
2019-03-03T08:40:11.648Z,31.17
2019-03-03T08:42:56.957Z,32.37
2019-03-03T08:45:27.304Z,32.00
2019-03-03T08:48:03.638Z,34.43
2019-03-03T08:50:33.854Z,31.43
2019-03-03T08:53:06.886Z,30.93
2019-03-03T08:55:42.881Z,30.93
2019-03-03T08:58:28.107Z,31.07
2019-03-03T09:00:58.337Z,28.90
2019-03-03T09:03:44.845Z,33.07
2019-03-03T09:06:31.289Z,31.10
2019-03-03T09:09:10.226Z,30.63
2019-03-03T09:11:40.475Z,30.33
2019-03-03T09:14:25.927Z,29.90
2019-03-03T09:16:56.163Z,32.03
2019-03-03T09:19:26.414Z,27.63
2019-03-03T09:21:56.639Z,27.43
2019-03-03T09:24:26.886Z,27.53
2019-03-03T09:27:09.323Z,30.40
2019-03-03T09:29:57.565Z,28.83
2019-03-03T09:32:39.511Z,29.30
2019-03-03T09:35:18.719Z,34.87
2019-03-03T09:37:48.978Z,32.40
2019-03-03T09:40:24.846Z,31.07
2019-03-03T09:42:57.958Z,29.90
2019-03-03T09:45:33.966Z,27.43
2019-03-03T09:48:06.960Z,30.03
2019-03-03T09:50:43.285Z,38.20
2019-03-03T09:53:25.437Z,28.20
2019-03-03T09:56:11.984Z,33.57
2019-03-03T09:58:58.240Z,27.03
2019-03-03T10:01:31.035Z,30.50
2019-03-03T10:04:17.392Z,27.30
2019-03-03T10:07:04.232Z,26.93
2019-03-03T10:09:52.478Z,24.10
2019-03-03T10:12:38.947Z,26.73
2019-03-03T10:15:14.493Z,23.30
2019-03-03T10:17:51.004Z,25.57
2019-03-03T10:20:27.538Z,22.87
2019-03-03T10:23:14.415Z,22.27
2019-03-03T10:25:59.707Z,27.50
2019-03-03T10:28:38.650Z,21.07
2019-03-03T10:31:14.784Z,23.60
2019-03-03T10:34:01.184Z,22.97
2019-03-03T10:36:37.451Z,22.80
2019-03-03T10:39:10.138Z,21.80
2019-03-03T10:41:49.283Z,24.30
2019-03-03T10:44:34.388Z,18.43
2019-03-03T10:47:07.210Z,24.80
2019-03-03T10:49:40.248Z,18.53
2019-03-03T10:52:10.508Z,17.23
2019-03-03T10:54:40.777Z,20.30
2019-03-03T10:57:17.068Z,14.63
2019-03-03T11:00:03.478Z,12.30
2019-03-03T11:02:33.815Z,14.17
2019-03-03T11:05:19.419Z,16.63
2019-03-03T11:07:52.645Z,16.70
2019-03-03T11:10:25.630Z,16.23
2019-03-03T11:13:04.914Z,16.80
2019-03-03T11:15:35.161Z,13.47
2019-03-03T11:18:08.263Z,13.13
2019-03-03T11:20:47.641Z,15.37
2019-03-03T11:23:34.245Z,17.87
2019-03-03T11:26:07.258Z,14.93
2019-03-03T11:28:37.495Z,14.37
2019-03-03T11:31:16.754Z,20.07
2019-03-03T11:33:50.104Z,20.87
2019-03-03T11:36:23.496Z,19.40
2019-03-03T11:38:56.803Z,19.70
2019-03-03T11:41:39.329Z,16.10
2019-03-03T11:44:12.567Z,19.53
2019-03-03T11:46:45.728Z,16.70
2019-03-03T11:49:16.046Z,14.47
2019-03-03T11:51:49.133Z,15.13
2019-03-03T11:54:19.363Z,15.40
2019-03-03T11:56:49.601Z,15.07
2019-03-03T11:59:25.974Z,18.23
2019-03-03T12:01:59.304Z,15.30
2019-03-03T12:04:29.644Z,19.20
2019-03-03T12:07:02.615Z,17.83
2019-03-03T12:09:35.605Z,18.77
2019-03-03T12:12:05.950Z,28.87
2019-03-03T12:14:36.200Z,25.47
2019-03-03T12:17:06.524Z,23.87
2019-03-03T12:19:52.038Z,24.23
2019-03-03T12:22:22.329Z,23.23
2019-03-03T12:25:04.466Z,26.27
2019-03-03T12:27:51.108Z,26.83
2019-03-03T12:30:21.402Z,26.90
2019-03-03T12:33:03.882Z,28.03
2019-03-03T12:35:42.898Z,34.93
2019-03-03T12:38:29.307Z,31.33
2019-03-03T12:41:15.879Z,26.00
2019-03-03T12:43:46.125Z,23.97
2019-03-03T12:46:16.415Z,22.67
2019-03-03T12:48:46.654Z,23.13
2019-03-03T12:51:16.938Z,23.03
2019-03-03T12:53:53.165Z,20.90
2019-03-03T12:56:32.204Z,20.90
2019-03-03T12:59:11.477Z,19.27
2019-03-03T13:01:57.964Z,18.93
2019-03-03T13:04:31.196Z,19.90
2019-03-03T13:07:07.412Z,22.07
2019-03-03T13:09:37.662Z,12.93
2019-03-03T13:12:07.903Z,11.43
2019-03-03T13:14:43.874Z,12.93
2019-03-03T13:17:14.112Z,12.67
2019-03-03T13:19:44.346Z,11.67
2019-03-03T13:22:29.898Z,12.93
2019-03-03T13:25:09.050Z,11.40
2019-03-03T13:27:45.304Z,13.17
2019-03-03T13:30:25.063Z,15.50
2019-03-03T13:32:58.542Z,14.37
2019-03-03T13:35:31.724Z,14.73
2019-03-03T13:38:14.116Z,12.67
2019-03-03T13:41:00.652Z,15.80
2019-03-03T13:43:29.330Z,12.70
2019-03-03T13:45:58.118Z,12.60
2019-03-03T13:48:26.791Z,10.83
2019-03-03T13:50:55.459Z,9.47
2019-03-03T13:53:24.160Z,12.53
2019-03-03T13:55:52.833Z,14.60
2019-03-03T13:58:21.498Z,12.33
2019-03-03T14:00:50.159Z,11.43
2019-03-03T14:03:18.877Z,12.13
2019-03-03T14:05:47.558Z,10.50
2019-03-03T14:08:16.223Z,11.70
2019-03-03T14:10:44.893Z,10.53
2019-03-03T14:13:13.561Z,12.13
2019-03-03T14:15:42.226Z,11.17
2019-03-03T14:18:10.910Z,10.47
2019-03-03T14:20:39.559Z,9.87
2019-03-03T14:23:08.330Z,13.10
2019-03-03T14:25:37.000Z,12.10
2019-03-03T14:28:05.786Z,11.23
2019-03-03T14:30:34.491Z,14.83
2019-03-03T14:33:03.156Z,11.47
2019-03-03T14:35:31.873Z,9.63
2019-03-03T14:38:00.566Z,12.13
2019-03-03T14:40:29.222Z,13.07
2019-03-03T14:42:57.915Z,13.37
2019-03-03T14:45:27.192Z,11.87
2019-03-03T14:47:55.856Z,12.70
2019-03-03T14:50:24.740Z,12.07
2019-03-03T14:52:55.216Z,13.60
2019-03-03T14:55:24.034Z,12.50
2019-03-03T14:57:52.693Z,14.27
2019-03-03T15:00:24.370Z,12.57
2019-03-03T15:02:54.805Z,12.37
2019-03-03T15:05:23.458Z,9.97
2019-03-03T15:07:52.127Z,12.67
2019-03-03T15:10:21.094Z,10.33
2019-03-03T15:12:49.756Z,11.63
2019-03-03T15:15:21.282Z,9.60
2019-03-03T15:17:49.927Z,8.97
2019-03-03T15:20:18.695Z,8.13
2019-03-03T15:22:47.355Z,9.97
2019-03-03T15:25:16.425Z,9.27
2019-03-03T15:27:45.199Z,12.90
2019-03-03T15:30:16.771Z,11.60
2019-03-03T15:32:45.531Z,13.33
2019-03-03T15:35:14.300Z,9.53
2019-03-03T15:37:42.979Z,11.20
2019-03-03T15:40:28.807Z,11.37
2019-03-03T15:42:57.494Z,11.57
2019-03-03T15:45:29.872Z,12.40
2019-03-03T15:47:58.526Z,9.30
2019-03-03T15:50:27.377Z,11.63
2019-03-03T15:52:56.037Z,10.90
2019-03-03T15:55:29.380Z,10.63
2019-03-03T15:57:58.041Z,9.33
2019-03-03T16:00:35.662Z,14.27
2019-03-03T16:03:04.671Z,10.57
2019-03-03T16:05:33.332Z,10.67
2019-03-03T16:08:02.158Z,11.50
2019-03-03T16:10:30.843Z,10.23
2019-03-03T16:12:59.507Z,10.80
2019-03-03T16:15:28.274Z,10.00
2019-03-03T16:17:56.947Z,12.97
2019-03-03T16:20:25.711Z,14.07
2019-03-03T16:22:54.380Z,13.70
2019-03-03T16:25:24.044Z,9.60
2019-03-03T16:27:53.015Z,13.57
2019-03-03T16:30:23.655Z,11.17
2019-03-03T16:32:52.335Z,14.53
2019-03-03T16:35:21.019Z,12.47
2019-03-03T16:37:49.721Z,14.60
2019-03-03T16:40:22.579Z,12.80
2019-03-03T16:42:51.284Z,12.57
2019-03-03T16:45:20.075Z,13.57
2019-03-03T16:47:48.866Z,13.03
2019-03-03T16:50:19.966Z,13.07
2019-03-03T16:52:49.132Z,17.87
2019-03-03T16:55:18.996Z,15.57
2019-03-03T16:57:47.650Z,12.40
2019-03-03T17:00:24.439Z,16.40
2019-03-03T17:02:53.187Z,12.37
2019-03-03T17:05:24.783Z,15.33
2019-03-03T17:07:53.451Z,13.10
2019-03-03T17:10:22.121Z,12.60
2019-03-03T17:12:50.939Z,13.67
2019-03-03T17:15:24.353Z,15.60
2019-03-03T17:17:53.009Z,13.40
2019-03-03T17:20:21.666Z,15.07
2019-03-03T17:22:50.334Z,14.00
2019-03-03T17:25:21.463Z,15.47
2019-03-03T17:27:50.136Z,13.40
2019-03-03T17:30:28.002Z,11.87
2019-03-03T17:32:56.864Z,14.17
2019-03-03T17:35:25.623Z,15.47
2019-03-03T17:37:56.542Z,12.33
2019-03-03T17:40:29.155Z,13.43
2019-03-03T17:42:57.828Z,12.60
2019-03-03T17:45:26.710Z,12.83
2019-03-03T17:47:55.358Z,13.80
2019-03-03T17:50:26.943Z,13.93
2019-03-03T17:52:55.609Z,14.47
2019-03-03T17:55:24.393Z,15.57
2019-03-03T17:57:53.154Z,12.57
2019-03-03T18:00:33.691Z,13.77
2019-03-03T18:03:02.346Z,12.40
2019-03-03T18:05:31.011Z,12.77
2019-03-03T18:07:59.722Z,13.00
2019-03-03T18:10:28.421Z,11.47
2019-03-03T18:12:57.134Z,12.40
2019-03-03T18:15:25.757Z,13.67
2019-03-03T18:17:54.443Z,13.70
2019-03-03T18:20:23.123Z,11.83
2019-03-03T18:22:51.954Z,13.17
2019-03-03T18:25:21.617Z,15.13
2019-03-03T18:27:50.318Z,15.10
2019-03-03T18:30:29.190Z,15.70
2019-03-03T18:32:57.854Z,13.00
2019-03-03T18:35:26.518Z,12.33
2019-03-03T18:37:55.178Z,13.43
2019-03-03T18:40:24.957Z,14.03
2019-03-03T18:42:54.154Z,12.00
2019-03-03T18:45:23.634Z,12.13
2019-03-03T18:47:52.401Z,13.17
2019-03-03T18:50:26.426Z,12.33
2019-03-03T18:52:55.095Z,12.97
2019-03-03T18:55:23.802Z,13.60
2019-03-03T18:57:52.558Z,11.57
2019-03-03T19:00:23.774Z,14.50
2019-03-03T19:02:52.532Z,13.57
2019-03-03T19:05:21.201Z,14.57
2019-03-03T19:07:49.864Z,13.83
2019-03-03T19:10:27.026Z,13.20
2019-03-03T19:12:55.683Z,14.63
2019-03-03T19:15:24.446Z,14.10
2019-03-03T19:17:53.120Z,15.10
2019-03-03T19:20:22.397Z,16.00
2019-03-03T19:22:51.510Z,12.73
2019-03-03T19:25:20.368Z,16.77
2019-03-03T19:27:49.037Z,14.10
2019-03-03T19:30:23.160Z,15.83
2019-03-03T19:32:58.052Z,15.17
2019-03-03T19:35:26.759Z,16.30
2019-03-03T19:37:55.434Z,15.90
2019-03-03T19:40:24.503Z,18.47
2019-03-03T19:42:53.197Z,18.03
2019-03-03T19:45:27.944Z,15.60
2019-03-03T19:47:56.814Z,14.40
2019-03-03T19:50:25.558Z,17.63
2019-03-03T19:52:54.329Z,16.33
2019-03-03T19:55:23.331Z,13.80
2019-03-03T19:57:52.032Z,17.30
2019-03-03T20:00:35.633Z,19.40
2019-03-03T20:02:59.397Z,17.30
2019-03-03T20:05:28.066Z,19.53
2019-03-03T20:07:56.739Z,15.70
2019-03-03T20:10:25.513Z,16.73
2019-03-03T20:12:54.183Z,13.93
2019-03-03T20:15:23.346Z,23.23
2019-03-03T20:17:52.029Z,19.07
2019-03-03T20:20:21.804Z,14.83
2019-03-03T20:22:50.562Z,14.40
2019-03-03T20:25:19.327Z,14.97
2019-03-03T20:27:48.112Z,17.03
2019-03-03T20:30:19.282Z,16.90
2019-03-03T20:32:48.113Z,19.00
2019-03-03T20:35:16.904Z,15.80
2019-03-03T20:37:46.674Z,14.27
2019-03-03T20:40:20.265Z,15.20
2019-03-03T20:42:48.951Z,16.77
2019-03-03T20:45:20.648Z,17.43
2019-03-03T20:47:49.286Z,14.80
2019-03-03T20:50:19.659Z,12.97
2019-03-03T20:52:49.034Z,16.50
2019-03-03T20:55:25.598Z,18.53
2019-03-03T20:57:54.278Z,17.00
2019-03-03T21:00:25.418Z,20.17
2019-03-03T21:02:54.145Z,17.23
2019-03-03T21:05:22.822Z,16.77
2019-03-03T21:07:52.267Z,17.80
2019-03-03T21:10:32.116Z,16.57
2019-03-03T21:13:00.980Z,13.77
2019-03-03T21:15:29.642Z,16.77
2019-03-03T21:17:58.311Z,15.47
2019-03-03T21:20:27.149Z,16.30
2019-03-03T21:22:55.886Z,19.07
2019-03-03T21:25:24.493Z,14.83
2019-03-03T21:27:53.166Z,14.43
2019-03-03T21:30:23.351Z,17.90
2019-03-03T21:32:52.520Z,14.40
2019-03-03T21:35:21.773Z,12.57
2019-03-03T21:37:50.545Z,15.50
2019-03-03T21:40:23.765Z,15.97
2019-03-03T21:42:52.525Z,15.87
2019-03-03T21:45:28.222Z,13.40
2019-03-03T21:47:57.266Z,18.67
2019-03-03T21:50:31.039Z,13.30
2019-03-03T21:52:59.709Z,13.80
2019-03-03T21:55:28.470Z,12.70
2019-03-03T21:57:57.152Z,13.63
2019-03-03T22:00:31.129Z,26.43
2019-03-03T22:02:59.823Z,28.90
2019-03-03T22:05:28.598Z,22.17
2019-03-03T22:07:57.302Z,24.70
2019-03-03T22:10:33.009Z,22.70
2019-03-03T22:13:03.381Z,14.87
2019-03-03T22:15:32.062Z,14.33
2019-03-03T22:18:00.733Z,13.20
2019-03-03T22:20:29.494Z,11.50
2019-03-03T22:22:58.166Z,12.97
2019-03-03T22:25:26.847Z,15.30
2019-03-03T22:27:55.531Z,15.83
2019-03-03T22:30:24.241Z,12.83
2019-03-03T22:32:52.960Z,16.90
2019-03-03T22:35:21.629Z,15.40
2019-03-03T22:37:51.159Z,18.70
2019-03-03T22:40:22.771Z,13.33
2019-03-03T22:42:51.497Z,16.50
2019-03-03T22:45:20.564Z,15.43
2019-03-03T22:47:49.275Z,14.37
2019-03-03T22:50:19.247Z,16.50
2019-03-03T22:52:47.928Z,15.00
2019-03-03T22:55:18.602Z,18.50
2019-03-03T22:57:47.268Z,22.10
2019-03-03T23:00:44.678Z,21.33
2019-03-03T23:03:16.858Z,24.47
2019-03-03T23:05:54.065Z,28.70
2019-03-03T23:08:28.282Z,29.43
2019-03-03T23:11:05.445Z,42.70
2019-03-03T23:13:37.023Z,35.80
2019-03-03T23:16:14.492Z,38.30
2019-03-03T23:19:08.719Z,46.27
2019-03-03T23:21:55.028Z,43.90
2019-03-03T23:24:26.663Z,45.87
2019-03-03T23:26:55.337Z,51.70
2019-03-03T23:29:24.014Z,47.60
2019-03-03T23:31:52.679Z,44.83
2019-03-03T23:34:21.356Z,43.50
2019-03-03T23:36:50.129Z,41.93
2019-03-03T23:39:18.844Z,40.73
2019-03-03T23:41:47.523Z,43.97
2019-03-03T23:44:17.193Z,39.93
2019-03-03T23:46:45.899Z,34.63
2019-03-03T23:49:15.336Z,29.07
2019-03-03T23:51:44.016Z,31.23
2019-03-03T23:54:12.682Z,28.13
2019-03-03T23:56:41.395Z,26.40
2019-03-03T23:59:10.106Z,20.07
